sensor_id;sensor_type;location;lat;lon;timestamp;temperature;humidity
51988;DHT22;38003;52.012;4.346;2022-08-03T00:01:41;24.70;58.10
51988;DHT22;38003;52.012;4.346;2022-08-03T00:04:10;24.80;58.20
51988;DHT22;38003;52.012;4.346;2022-08-03T00:06:39;24.60;58.30
51988;DHT22;38003;52.012;4.346;2022-08-03T00:09:09;24.50;58.70
51988;DHT22;38003;52.012;4.346;2022-08-03T00:11:37;24.90;58.50
51988;DHT22;38003;52.012;4.346;2022-08-03T00:14:06;24.70;58.00
51988;DHT22;38003;52.012;4.346;2022-08-03T00:16:34;24.60;58.00
51988;DHT22;38003;52.012;4.346;2022-08-03T00:19:02;24.70;58.00
51988;DHT22;38003;52.012;4.346;2022-08-03T00:21:30;25.00;58.70
51988;DHT22;38003;52.012;4.346;2022-08-03T00:23:58;24.70;58.20
51988;DHT22;38003;52.012;4.346;2022-08-03T00:26:27;24.70;58.20
51988;DHT22;38003;52.012;4.346;2022-08-03T00:28:57;25.00;58.40
51988;DHT22;38003;52.012;4.346;2022-08-03T00:31:26;24.70;58.10
51988;DHT22;38003;52.012;4.346;2022-08-03T00:34:14;24.70;58.30
51988;DHT22;38003;52.012;4.346;2022-08-03T00:36:47;24.60;58.30
51988;DHT22;38003;52.012;4.346;2022-08-03T00:39:15;24.50;58.90
51988;DHT22;38003;52.012;4.346;2022-08-03T00:41:44;24.50;58.90
51988;DHT22;38003;52.012;4.346;2022-08-03T00:44:12;24.60;58.90
51988;DHT22;38003;52.012;4.346;2022-08-03T00:46:40;25.00;58.90
51988;DHT22;38003;52.012;4.346;2022-08-03T00:49:08;24.60;59.60
51988;DHT22;38003;52.012;4.346;2022-08-03T00:51:36;24.60;58.60
51988;DHT22;38003;52.012;4.346;2022-08-03T00:54:04;24.60;58.60
51988;DHT22;38003;52.012;4.346;2022-08-03T00:56:31;24.60;58.60
51988;DHT22;38003;52.012;4.346;2022-08-03T00:59:02;24.50;58.50
51988;DHT22;38003;52.012;4.346;2022-08-03T01:01:30;24.50;58.90
51988;DHT22;38003;52.012;4.346;2022-08-03T01:03:58;24.80;59.20
51988;DHT22;38003;52.012;4.346;2022-08-03T01:06:34;24.50;58.80
51988;DHT22;38003;52.012;4.346;2022-08-03T01:09:08;24.80;59.40
51988;DHT22;38003;52.012;4.346;2022-08-03T01:11:46;24.40;58.90
51988;DHT22;38003;52.012;4.346;2022-08-03T01:14:32;24.50;59.00
51988;DHT22;38003;52.012;4.346;2022-08-03T01:17:07;24.50;59.00
51988;DHT22;38003;52.012;4.346;2022-08-03T01:19:45;24.50;58.90
51988;DHT22;38003;52.012;4.346;2022-08-03T01:22:29;24.50;58.90
51988;DHT22;38003;52.012;4.346;2022-08-03T01:25:05;24.40;59.00
51988;DHT22;38003;52.012;4.346;2022-08-03T01:27:44;24.40;59.20
51988;DHT22;38003;52.012;4.346;2022-08-03T01:30:18;24.30;59.60
51988;DHT22;38003;52.012;4.346;2022-08-03T01:32:50;24.30;59.40
51988;DHT22;38003;52.012;4.346;2022-08-03T01:35:31;24.30;59.30
51988;DHT22;38003;52.012;4.346;2022-08-03T01:38:08;24.50;59.50
51988;DHT22;38003;52.012;4.346;2022-08-03T01:40:39;24.70;59.70
51988;DHT22;38003;52.012;4.346;2022-08-03T01:43:08;24.30;59.50
51988;DHT22;38003;52.012;4.346;2022-08-03T01:45:39;24.30;59.40
51988;DHT22;38003;52.012;4.346;2022-08-03T01:48:08;24.30;59.40
51988;DHT22;38003;52.012;4.346;2022-08-03T01:50:39;24.20;59.50
51988;DHT22;38003;52.012;4.346;2022-08-03T01:53:08;24.20;59.80
51988;DHT22;38003;52.012;4.346;2022-08-03T01:55:37;24.30;59.50
51988;DHT22;38003;52.012;4.346;2022-08-03T01:58:06;24.30;59.50
51988;DHT22;38003;52.012;4.346;2022-08-03T02:00:35;24.30;59.50
51988;DHT22;38003;52.012;4.346;2022-08-03T02:03:06;24.20;60.00
51988;DHT22;38003;52.012;4.346;2022-08-03T02:05:35;24.50;60.10
51988;DHT22;38003;52.012;4.346;2022-08-03T02:08:07;24.30;60.00
51988;DHT22;38003;52.012;4.346;2022-08-03T02:10:36;24.70;59.90
51988;DHT22;38003;52.012;4.346;2022-08-03T02:13:08;24.20;59.90
51988;DHT22;38003;52.012;4.346;2022-08-03T02:15:37;24.20;59.90
51988;DHT22;38003;52.012;4.346;2022-08-03T02:18:08;24.10;59.90
51988;DHT22;38003;52.012;4.346;2022-08-03T02:20:37;24.10;60.20
51988;DHT22;38003;52.012;4.346;2022-08-03T02:23:05;24.10;60.10
51988;DHT22;38003;52.012;4.346;2022-08-03T02:25:37;24.00;59.90
51988;DHT22;38003;52.012;4.346;2022-08-03T02:28:09;24.00;59.90
51988;DHT22;38003;52.012;4.346;2022-08-03T02:30:40;24.10;59.90
51988;DHT22;38003;52.012;4.346;2022-08-03T02:33:15;24.10;60.00
51988;DHT22;38003;52.012;4.346;2022-08-03T02:35:46;24.10;60.10
51988;DHT22;38003;52.012;4.346;2022-08-03T02:38:18;24.30;60.10
51988;DHT22;38003;52.012;4.346;2022-08-03T02:40:48;24.00;60.00
51988;DHT22;38003;52.012;4.346;2022-08-03T02:43:20;23.90;60.50
51988;DHT22;38003;52.012;4.346;2022-08-03T02:45:52;24.00;60.60
51988;DHT22;38003;52.012;4.346;2022-08-03T02:48:25;24.00;60.10
51988;DHT22;38003;52.012;4.346;2022-08-03T02:50:57;23.90;60.10
51988;DHT22;38003;52.012;4.346;2022-08-03T02:53:26;24.00;60.20
51988;DHT22;38003;52.012;4.346;2022-08-03T02:55:56;24.00;60.00
51988;DHT22;38003;52.012;4.346;2022-08-03T02:58:25;23.90;60.30
51988;DHT22;38003;52.012;4.346;2022-08-03T03:00:54;24.40;60.40
51988;DHT22;38003;52.012;4.346;2022-08-03T03:03:25;24.00;60.20
51988;DHT22;38003;52.012;4.346;2022-08-03T03:05:56;23.90;60.30
51988;DHT22;38003;52.012;4.346;2022-08-03T03:08:25;23.80;60.30
51988;DHT22;38003;52.012;4.346;2022-08-03T03:10:56;23.90;60.30
51988;DHT22;38003;52.012;4.346;2022-08-03T03:13:26;23.70;60.30
51988;DHT22;38003;52.012;4.346;2022-08-03T03:15:56;24.30;60.40
51988;DHT22;38003;52.012;4.346;2022-08-03T03:18:28;23.80;60.50
51988;DHT22;38003;52.012;4.346;2022-08-03T03:20:58;23.60;61.10
51988;DHT22;38003;52.012;4.346;2022-08-03T03:23:27;23.60;61.10
51988;DHT22;38003;52.012;4.346;2022-08-03T03:25:56;23.70;60.80
51988;DHT22;38003;52.012;4.346;2022-08-03T03:28:24;23.60;60.70
51988;DHT22;38003;52.012;4.346;2022-08-03T03:30:53;23.60;60.70
51988;DHT22;38003;52.012;4.346;2022-08-03T03:33:21;23.60;60.50
51988;DHT22;38003;52.012;4.346;2022-08-03T03:35:51;23.60;60.80
51988;DHT22;38003;52.012;4.346;2022-08-03T03:38:20;23.60;60.70
51988;DHT22;38003;52.012;4.346;2022-08-03T03:40:48;23.60;60.60
51988;DHT22;38003;52.012;4.346;2022-08-03T03:43:16;23.50;61.00
51988;DHT22;38003;52.012;4.346;2022-08-03T03:45:46;24.00;61.40
51988;DHT22;38003;52.012;4.346;2022-08-03T03:48:15;23.50;60.90
51988;DHT22;38003;52.012;4.346;2022-08-03T03:50:43;23.60;60.80
51988;DHT22;38003;52.012;4.346;2022-08-03T03:53:13;23.60;60.90
51988;DHT22;38003;52.012;4.346;2022-08-03T03:55:41;23.60;60.80
51988;DHT22;38003;52.012;4.346;2022-08-03T03:58:28;23.60;60.70
51988;DHT22;38003;52.012;4.346;2022-08-03T04:00:55;23.60;60.80
51988;DHT22;38003;52.012;4.346;2022-08-03T04:03:23;23.60;60.90
51988;DHT22;38003;52.012;4.346;2022-08-03T04:05:51;23.60;60.70
51988;DHT22;38003;52.012;4.346;2022-08-03T04:08:39;23.60;60.70
51988;DHT22;38003;52.012;4.346;2022-08-03T04:11:26;23.50;60.90
51988;DHT22;38003;52.012;4.346;2022-08-03T04:14:01;23.60;60.80
51988;DHT22;38003;52.012;4.346;2022-08-03T04:16:32;23.50;60.90
51988;DHT22;38003;52.012;4.346;2022-08-03T04:19:13;23.60;60.80
51988;DHT22;38003;52.012;4.346;2022-08-03T04:21:50;23.60;61.00
51988;DHT22;38003;52.012;4.346;2022-08-03T04:24:27;23.60;60.90
51988;DHT22;38003;52.012;4.346;2022-08-03T04:26:58;23.90;61.30
51988;DHT22;38003;52.012;4.346;2022-08-03T04:29:28;23.40;61.10
51988;DHT22;38003;52.012;4.346;2022-08-03T04:31:59;23.50;61.10
51988;DHT22;38003;52.012;4.346;2022-08-03T04:34:29;23.50;61.10
51988;DHT22;38003;52.012;4.346;2022-08-03T04:36:58;23.50;61.00
51988;DHT22;38003;52.012;4.346;2022-08-03T04:39:30;23.40;61.10
51988;DHT22;38003;52.012;4.346;2022-08-03T04:42:02;23.80;61.20
51988;DHT22;38003;52.012;4.346;2022-08-03T04:44:36;23.40;61.20
51988;DHT22;38003;52.012;4.346;2022-08-03T04:47:04;23.40;61.10
51988;DHT22;38003;52.012;4.346;2022-08-03T04:49:34;23.50;61.10
51988;DHT22;38003;52.012;4.346;2022-08-03T04:52:03;23.40;61.20
51988;DHT22;38003;52.012;4.346;2022-08-03T04:54:39;23.40;61.30
51988;DHT22;38003;52.012;4.346;2022-08-03T04:57:08;23.40;61.20
51988;DHT22;38003;52.012;4.346;2022-08-03T04:59:48;23.80;61.50
51988;DHT22;38003;52.012;4.346;2022-08-03T05:02:28;23.40;61.10
51988;DHT22;38003;52.012;4.346;2022-08-03T05:04:57;23.30;61.20
51988;DHT22;38003;52.012;4.346;2022-08-03T05:07:25;23.40;61.40
51988;DHT22;38003;52.012;4.346;2022-08-03T05:10:05;23.30;61.30
51988;DHT22;38003;52.012;4.346;2022-08-03T05:12:42;23.40;61.50
51988;DHT22;38003;52.012;4.346;2022-08-03T05:15:10;23.40;61.40
51988;DHT22;38003;52.012;4.346;2022-08-03T05:17:38;23.40;61.40
51988;DHT22;38003;52.012;4.346;2022-08-03T05:20:07;23.50;61.50
51988;DHT22;38003;52.012;4.346;2022-08-03T05:22:35;23.50;61.40
51988;DHT22;38003;52.012;4.346;2022-08-03T05:25:06;23.50;61.50
51988;DHT22;38003;52.012;4.346;2022-08-03T05:27:34;23.50;61.50
51988;DHT22;38003;52.012;4.346;2022-08-03T05:30:02;23.60;61.40
51988;DHT22;38003;52.012;4.346;2022-08-03T05:32:50;23.60;61.50
51988;DHT22;38003;52.012;4.346;2022-08-03T05:35:18;23.50;61.50
51988;DHT22;38003;52.012;4.346;2022-08-03T05:38:07;23.60;61.50
51988;DHT22;38003;52.012;4.346;2022-08-03T05:40:37;23.50;61.50
51988;DHT22;38003;52.012;4.346;2022-08-03T05:43:22;23.70;61.60
51988;DHT22;38003;52.012;4.346;2022-08-03T05:45:50;23.60;61.60
51988;DHT22;38003;52.012;4.346;2022-08-03T05:48:38;23.60;62.00
51988;DHT22;38003;52.012;4.346;2022-08-03T05:51:06;23.70;61.80
51988;DHT22;38003;52.012;4.346;2022-08-03T05:53:37;23.70;61.60
51988;DHT22;38003;52.012;4.346;2022-08-03T05:56:06;23.70;61.60
51988;DHT22;38003;52.012;4.346;2022-08-03T05:58:41;24.00;61.90
51988;DHT22;38003;52.012;4.346;2022-08-03T06:01:10;24.20;61.70
51988;DHT22;38003;52.012;4.346;2022-08-03T06:03:38;23.70;61.70
51988;DHT22;38003;52.012;4.346;2022-08-03T06:06:06;23.80;61.70
51988;DHT22;38003;52.012;4.346;2022-08-03T06:09:01;23.80;61.60
51988;DHT22;38003;52.012;4.346;2022-08-03T06:11:33;23.70;62.00
51988;DHT22;38003;52.012;4.346;2022-08-03T06:14:01;24.20;62.10
51988;DHT22;38003;52.012;4.346;2022-08-03T06:16:40;23.70;61.80
51988;DHT22;38003;52.012;4.346;2022-08-03T06:19:29;23.80;61.70
51988;DHT22;38003;52.012;4.346;2022-08-03T06:21:57;23.70;62.20
51988;DHT22;38003;52.012;4.346;2022-08-03T06:24:28;23.60;62.60
51988;DHT22;38003;52.012;4.346;2022-08-03T06:26:57;23.60;62.30
51988;DHT22;38003;52.012;4.346;2022-08-03T06:29:25;23.60;62.40
51988;DHT22;38003;52.012;4.346;2022-08-03T06:31:53;23.60;62.10
51988;DHT22;38003;52.012;4.346;2022-08-03T06:34:21;23.50;62.90
51988;DHT22;38003;52.012;4.346;2022-08-03T06:37:00;23.70;62.10
51988;DHT22;38003;52.012;4.346;2022-08-03T06:39:28;23.70;62.20
51988;DHT22;38003;52.012;4.346;2022-08-03T06:41:58;23.70;62.50
51988;DHT22;38003;52.012;4.346;2022-08-03T06:44:26;23.70;62.10
51988;DHT22;38003;52.012;4.346;2022-08-03T06:46:54;23.70;62.10
51988;DHT22;38003;52.012;4.346;2022-08-03T06:49:34;23.80;61.90
51988;DHT22;38003;52.012;4.346;2022-08-03T06:52:45;23.90;61.70
51988;DHT22;38003;52.012;4.346;2022-08-03T06:56:24;24.00;62.30
51988;DHT22;38003;52.012;4.346;2022-08-03T06:59:24;23.90;61.90
51988;DHT22;38003;52.012;4.346;2022-08-03T07:02:24;23.90;63.00
51988;DHT22;38003;52.012;4.346;2022-08-03T07:04:54;23.80;62.30
51988;DHT22;38003;52.012;4.346;2022-08-03T07:07:22;24.00;62.20
51988;DHT22;38003;52.012;4.346;2022-08-03T07:09:50;24.00;61.80
51988;DHT22;38003;52.012;4.346;2022-08-03T07:12:27;24.00;61.80
51988;DHT22;38003;52.012;4.346;2022-08-03T07:15:33;24.10;61.80
51988;DHT22;38003;52.012;4.346;2022-08-03T07:18:27;24.10;62.20
51988;DHT22;38003;52.012;4.346;2022-08-03T07:21:00;24.00;61.80
51988;DHT22;38003;52.012;4.346;2022-08-03T07:23:55;24.10;61.70
51988;DHT22;38003;52.012;4.346;2022-08-03T07:26:28;24.20;61.20
51988;DHT22;38003;52.012;4.346;2022-08-03T07:28:57;24.20;61.70
51988;DHT22;38003;52.012;4.346;2022-08-03T07:31:28;24.20;61.70
51988;DHT22;38003;52.012;4.346;2022-08-03T07:34:00;24.20;61.90
51988;DHT22;38003;52.012;4.346;2022-08-03T07:36:28;24.20;61.60
51988;DHT22;38003;52.012;4.346;2022-08-03T07:38:59;24.70;61.80
51988;DHT22;38003;52.012;4.346;2022-08-03T07:41:43;24.30;61.60
51988;DHT22;38003;52.012;4.346;2022-08-03T07:44:11;24.20;61.90
51988;DHT22;38003;52.012;4.346;2022-08-03T07:46:41;24.30;61.60
51988;DHT22;38003;52.012;4.346;2022-08-03T07:49:09;24.30;62.30
51988;DHT22;38003;52.012;4.346;2022-08-03T07:51:38;24.40;61.70
51988;DHT22;38003;52.012;4.346;2022-08-03T07:54:06;24.40;61.50
51988;DHT22;38003;52.012;4.346;2022-08-03T07:56:35;24.50;61.50
51988;DHT22;38003;52.012;4.346;2022-08-03T07:59:04;24.30;61.60
51988;DHT22;38003;52.012;4.346;2022-08-03T08:01:31;24.40;61.70
51988;DHT22;38003;52.012;4.346;2022-08-03T08:04:03;24.40;61.40
51988;DHT22;38003;52.012;4.346;2022-08-03T08:06:31;24.50;61.10
51988;DHT22;38003;52.012;4.346;2022-08-03T08:08:59;24.60;61.10
51988;DHT22;38003;52.012;4.346;2022-08-03T08:11:27;24.70;60.90
51988;DHT22;38003;52.012;4.346;2022-08-03T08:13:55;24.50;61.00
51988;DHT22;38003;52.012;4.346;2022-08-03T08:16:23;24.50;61.30
51988;DHT22;38003;52.012;4.346;2022-08-03T08:19:12;24.40;61.40
51988;DHT22;38003;52.012;4.346;2022-08-03T08:21:48;24.50;61.10
51988;DHT22;38003;52.012;4.346;2022-08-03T08:24:28;24.60;61.00
51988;DHT22;38003;52.012;4.346;2022-08-03T08:26:56;24.60;61.10
51988;DHT22;38003;52.012;4.346;2022-08-03T08:29:25;24.60;61.00
51988;DHT22;38003;52.012;4.346;2022-08-03T08:31:53;24.60;61.10
51988;DHT22;38003;52.012;4.346;2022-08-03T08:34:22;24.60;61.10
51988;DHT22;38003;52.012;4.346;2022-08-03T08:36:50;24.70;61.00
51988;DHT22;38003;52.012;4.346;2022-08-03T08:39:18;24.70;61.00
51988;DHT22;38003;52.012;4.346;2022-08-03T08:41:58;24.70;61.80
51988;DHT22;38003;52.012;4.346;2022-08-03T08:44:29;24.80;60.60
51988;DHT22;38003;52.012;4.346;2022-08-03T08:47:02;24.90;60.60
51988;DHT22;38003;52.012;4.346;2022-08-03T08:49:31;24.80;61.00
51988;DHT22;38003;52.012;4.346;2022-08-03T08:52:02;24.80;60.90
51988;DHT22;38003;52.012;4.346;2022-08-03T08:54:51;24.90;60.60
51988;DHT22;38003;52.012;4.346;2022-08-03T08:57:25;24.80;61.00
51988;DHT22;38003;52.012;4.346;2022-08-03T09:00:10;24.90;60.90
51988;DHT22;38003;52.012;4.346;2022-08-03T09:02:41;25.00;60.60
51988;DHT22;38003;52.012;4.346;2022-08-03T09:05:11;25.10;60.50
51988;DHT22;38003;52.012;4.346;2022-08-03T09:07:40;25.20;60.50
51988;DHT22;38003;52.012;4.346;2022-08-03T09:10:09;25.20;60.50
51988;DHT22;38003;52.012;4.346;2022-08-03T09:12:42;25.20;60.40
51988;DHT22;38003;52.012;4.346;2022-08-03T09:15:18;25.30;60.20
51988;DHT22;38003;52.012;4.346;2022-08-03T09:17:46;25.40;60.10
51988;DHT22;38003;52.012;4.346;2022-08-03T09:20:19;25.40;60.20
51988;DHT22;38003;52.012;4.346;2022-08-03T09:22:52;25.50;60.20
51988;DHT22;38003;52.012;4.346;2022-08-03T09:25:27;25.70;60.00
51988;DHT22;38003;52.012;4.346;2022-08-03T09:28:06;25.70;59.90
51988;DHT22;38003;52.012;4.346;2022-08-03T09:30:37;25.80;59.90
51988;DHT22;38003;52.012;4.346;2022-08-03T09:33:08;25.90;59.70
51988;DHT22;38003;52.012;4.346;2022-08-03T09:35:45;26.00;59.50
51988;DHT22;38003;52.012;4.346;2022-08-03T09:38:21;26.10;59.70
51988;DHT22;38003;52.012;4.346;2022-08-03T09:40:50;26.00;59.50
51988;DHT22;38003;52.012;4.346;2022-08-03T09:43:25;26.10;59.50
51988;DHT22;38003;52.012;4.346;2022-08-03T09:46:38;26.20;59.20
51988;DHT22;38003;52.012;4.346;2022-08-03T09:49:31;26.00;59.30
51988;DHT22;38003;52.012;4.346;2022-08-03T09:52:11;25.90;59.90
51988;DHT22;38003;52.012;4.346;2022-08-03T09:55:00;26.10;59.60
51988;DHT22;38003;52.012;4.346;2022-08-03T09:57:28;26.30;59.10
51988;DHT22;38003;52.012;4.346;2022-08-03T10:00:06;26.20;59.40
51988;DHT22;38003;52.012;4.346;2022-08-03T10:02:37;26.50;59.10
51988;DHT22;38003;52.012;4.346;2022-08-03T10:05:06;26.50;58.40
51988;DHT22;38003;52.012;4.346;2022-08-03T10:07:43;26.50;58.50
51988;DHT22;38003;52.012;4.346;2022-08-03T10:10:12;26.60;58.80
51988;DHT22;38003;52.012;4.346;2022-08-03T10:12:58;26.80;58.20
51988;DHT22;38003;52.012;4.346;2022-08-03T10:15:26;26.90;58.10
51988;DHT22;38003;52.012;4.346;2022-08-03T10:18:19;27.00;57.50
51988;DHT22;38003;52.012;4.346;2022-08-03T10:20:50;27.00;57.70
51988;DHT22;38003;52.012;4.346;2022-08-03T10:23:20;26.90;57.30
51988;DHT22;38003;52.012;4.346;2022-08-03T10:25:53;27.00;57.10
51988;DHT22;38003;52.012;4.346;2022-08-03T10:28:22;26.90;57.30
51988;DHT22;38003;52.012;4.346;2022-08-03T10:30:52;26.90;57.00
51988;DHT22;38003;52.012;4.346;2022-08-03T10:33:25;27.20;56.90
51988;DHT22;38003;52.012;4.346;2022-08-03T10:36:15;27.40;56.30
51988;DHT22;38003;52.012;4.346;2022-08-03T10:38:47;27.50;56.20
51988;DHT22;38003;52.012;4.346;2022-08-03T10:41:20;27.70;56.20
51988;DHT22;38003;52.012;4.346;2022-08-03T10:43:52;27.80;56.10
51988;DHT22;38003;52.012;4.346;2022-08-03T10:46:22;28.00;55.40
51988;DHT22;38003;52.012;4.346;2022-08-03T10:48:50;28.10;55.40
51988;DHT22;38003;52.012;4.346;2022-08-03T10:51:20;28.20;54.20
51988;DHT22;38003;52.012;4.346;2022-08-03T10:53:49;28.10;55.90
51988;DHT22;38003;52.012;4.346;2022-08-03T10:56:40;28.20;54.70
51988;DHT22;38003;52.012;4.346;2022-08-03T10:59:58;28.60;54.90
51988;DHT22;38003;52.012;4.346;2022-08-03T11:03:00;28.60;54.50
51988;DHT22;38003;52.012;4.346;2022-08-03T11:05:29;28.70;52.60
51988;DHT22;38003;52.012;4.346;2022-08-03T11:08:19;28.90;53.80
51988;DHT22;38003;52.012;4.346;2022-08-03T11:10:50;29.00;54.10
51988;DHT22;38003;52.012;4.346;2022-08-03T11:13:20;29.10;54.00
51988;DHT22;38003;52.012;4.346;2022-08-03T11:15:49;29.20;54.00
51988;DHT22;38003;52.012;4.346;2022-08-03T11:18:26;29.60;53.80
51988;DHT22;38003;52.012;4.346;2022-08-03T11:20:55;29.50;53.00
51988;DHT22;38003;52.012;4.346;2022-08-03T11:23:40;29.40;53.10
51988;DHT22;38003;52.012;4.346;2022-08-03T11:26:30;29.30;52.20
51988;DHT22;38003;52.012;4.346;2022-08-03T11:29:25;29.40;52.80
51988;DHT22;38003;52.012;4.346;2022-08-03T11:31:53;29.60;51.60
51988;DHT22;38003;52.012;4.346;2022-08-03T11:34:21;29.60;51.90
51988;DHT22;38003;52.012;4.346;2022-08-03T11:37:18;29.80;51.70
51988;DHT22;38003;52.012;4.346;2022-08-03T11:39:52;30.00;51.90
51988;DHT22;38003;52.012;4.346;2022-08-03T11:42:40;29.90;50.40
51988;DHT22;38003;52.012;4.346;2022-08-03T11:45:11;29.90;49.00
51988;DHT22;38003;52.012;4.346;2022-08-03T11:47:40;29.90;50.80
51988;DHT22;38003;52.012;4.346;2022-08-03T11:50:17;30.30;50.40
51988;DHT22;38003;52.012;4.346;2022-08-03T11:52:49;30.30;49.90
51988;DHT22;38003;52.012;4.346;2022-08-03T11:55:19;30.30;49.80
51988;DHT22;38003;52.012;4.346;2022-08-03T11:57:49;30.50;49.80
51988;DHT22;38003;52.012;4.346;2022-08-03T12:00:37;30.50;49.70
51988;DHT22;38003;52.012;4.346;2022-08-03T12:03:07;30.60;48.60
51988;DHT22;38003;52.012;4.346;2022-08-03T12:05:40;30.50;49.10
51988;DHT22;38003;52.012;4.346;2022-08-03T12:08:29;30.80;49.50
51988;DHT22;38003;52.012;4.346;2022-08-03T12:11:00;31.00;49.20
51988;DHT22;38003;52.012;4.346;2022-08-03T12:13:37;31.20;49.10
51988;DHT22;38003;52.012;4.346;2022-08-03T12:16:26;31.10;49.30
51988;DHT22;38003;52.012;4.346;2022-08-03T12:18:59;31.20;48.90
51988;DHT22;38003;52.012;4.346;2022-08-03T12:21:28;31.00;48.40
51988;DHT22;38003;52.012;4.346;2022-08-03T12:23:57;31.10;48.90
51988;DHT22;38003;52.012;4.346;2022-08-03T12:26:29;31.40;48.90
51988;DHT22;38003;52.012;4.346;2022-08-03T12:28:58;31.30;48.70
51988;DHT22;38003;52.012;4.346;2022-08-03T12:31:26;31.40;48.60
51988;DHT22;38003;52.012;4.346;2022-08-03T12:33:58;31.40;48.60
51988;DHT22;38003;52.012;4.346;2022-08-03T12:36:29;31.50;48.00
51988;DHT22;38003;52.012;4.346;2022-08-03T12:38:59;31.50;47.60
51988;DHT22;38003;52.012;4.346;2022-08-03T12:41:29;31.60;47.20
51988;DHT22;38003;52.012;4.346;2022-08-03T12:43:59;31.60;47.00
51988;DHT22;38003;52.012;4.346;2022-08-03T12:46:30;31.60;47.30
51988;DHT22;38003;52.012;4.346;2022-08-03T12:49:00;31.60;46.40
51988;DHT22;38003;52.012;4.346;2022-08-03T12:51:31;31.50;46.50
51988;DHT22;38003;52.012;4.346;2022-08-03T12:53:59;31.60;46.90
51988;DHT22;38003;52.012;4.346;2022-08-03T12:56:27;31.60;46.80
51988;DHT22;38003;52.012;4.346;2022-08-03T12:58:55;31.50;46.40
51988;DHT22;38003;52.012;4.346;2022-08-03T13:01:25;31.60;46.60
51988;DHT22;38003;52.012;4.346;2022-08-03T13:03:58;31.60;47.20
51988;DHT22;38003;52.012;4.346;2022-08-03T13:06:27;31.70;46.70
51988;DHT22;38003;52.012;4.346;2022-08-03T13:09:03;31.70;46.20
51988;DHT22;38003;52.012;4.346;2022-08-03T13:11:31;31.60;46.20
51988;DHT22;38003;52.012;4.346;2022-08-03T13:14:20;31.70;46.70
51988;DHT22;38003;52.012;4.346;2022-08-03T13:16:51;31.80;46.50
51988;DHT22;38003;52.012;4.346;2022-08-03T13:19:19;32.10;46.40
51988;DHT22;38003;52.012;4.346;2022-08-03T13:21:48;32.20;45.60
51988;DHT22;38003;52.012;4.346;2022-08-03T13:24:29;32.40;45.70
51988;DHT22;38003;52.012;4.346;2022-08-03T13:26:57;32.40;46.30
51988;DHT22;38003;52.012;4.346;2022-08-03T13:29:49;32.40;46.00
51988;DHT22;38003;52.012;4.346;2022-08-03T13:32:20;32.40;44.80
51988;DHT22;38003;52.012;4.346;2022-08-03T13:34:48;32.50;44.50
51988;DHT22;38003;52.012;4.346;2022-08-03T13:37:16;32.50;44.40
51988;DHT22;38003;52.012;4.346;2022-08-03T13:39:45;32.60;45.30
51988;DHT22;38003;52.012;4.346;2022-08-03T13:42:27;32.70;44.80
51988;DHT22;38003;52.012;4.346;2022-08-03T13:44:55;32.80;45.40
51988;DHT22;38003;52.012;4.346;2022-08-03T13:47:24;32.80;44.70
51988;DHT22;38003;52.012;4.346;2022-08-03T13:49:52;32.90;45.20
51988;DHT22;38003;52.012;4.346;2022-08-03T13:52:29;32.80;45.00
51988;DHT22;38003;52.012;4.346;2022-08-03T13:54:57;33.00;44.60
51988;DHT22;38003;52.012;4.346;2022-08-03T13:57:25;33.00;44.70
51988;DHT22;38003;52.012;4.346;2022-08-03T14:00:14;33.00;44.90
51988;DHT22;38003;52.012;4.346;2022-08-03T14:02:56;33.00;44.70
51988;DHT22;38003;52.012;4.346;2022-08-03T14:05:40;33.20;45.30
51988;DHT22;38003;52.012;4.346;2022-08-03T14:08:09;33.30;44.60
51988;DHT22;38003;52.012;4.346;2022-08-03T14:10:39;33.20;44.70
51988;DHT22;38003;52.012;4.346;2022-08-03T14:13:07;33.30;44.10
51988;DHT22;38003;52.012;4.346;2022-08-03T14:15:35;33.20;44.80
51988;DHT22;38003;52.012;4.346;2022-08-03T14:18:06;33.00;44.30
51988;DHT22;38003;52.012;4.346;2022-08-03T14:20:42;32.70;43.20
51988;DHT22;38003;52.012;4.346;2022-08-03T14:23:19;32.80;44.10
51988;DHT22;38003;52.012;4.346;2022-08-03T14:25:47;32.50;42.60
51988;DHT22;38003;52.012;4.346;2022-08-03T14:28:19;32.50;43.70
51988;DHT22;38003;52.012;4.346;2022-08-03T14:30:48;32.40;43.80
51988;DHT22;38003;52.012;4.346;2022-08-03T14:33:17;32.40;43.80
51988;DHT22;38003;52.012;4.346;2022-08-03T14:35:45;32.30;44.70
51988;DHT22;38003;52.012;4.346;2022-08-03T14:38:14;32.20;44.50
51988;DHT22;38003;52.012;4.346;2022-08-03T14:40:42;32.00;44.10
51988;DHT22;38003;52.012;4.346;2022-08-03T14:43:11;31.80;43.80
51988;DHT22;38003;52.012;4.346;2022-08-03T14:45:39;31.70;43.70
51988;DHT22;38003;52.012;4.346;2022-08-03T14:48:07;31.60;43.80
51988;DHT22;38003;52.012;4.346;2022-08-03T14:51:00;31.80;42.90
51988;DHT22;38003;52.012;4.346;2022-08-03T14:53:28;31.40;42.10
51988;DHT22;38003;52.012;4.346;2022-08-03T14:55:56;31.60;43.10
51988;DHT22;38003;52.012;4.346;2022-08-03T14:58:24;31.10;42.80
51988;DHT22;38003;52.012;4.346;2022-08-03T15:00:53;31.00;43.50
51988;DHT22;38003;52.012;4.346;2022-08-03T15:03:23;30.70;42.90
51988;DHT22;38003;52.012;4.346;2022-08-03T15:05:55;30.80;44.10
51988;DHT22;38003;52.012;4.346;2022-08-03T15:08:25;30.70;44.80
51988;DHT22;38003;52.012;4.346;2022-08-03T15:10:53;30.80;44.50
51988;DHT22;38003;52.012;4.346;2022-08-03T15:13:22;30.90;44.30
51988;DHT22;38003;52.012;4.346;2022-08-03T15:15:51;30.90;44.30
51988;DHT22;38003;52.012;4.346;2022-08-03T15:18:19;31.00;44.60
51988;DHT22;38003;52.012;4.346;2022-08-03T15:20:47;30.90;44.00
51988;DHT22;38003;52.012;4.346;2022-08-03T15:23:17;31.00;43.90
51988;DHT22;38003;52.012;4.346;2022-08-03T15:25:47;30.80;44.50
51988;DHT22;38003;52.012;4.346;2022-08-03T15:28:35;30.80;43.80
51988;DHT22;38003;52.012;4.346;2022-08-03T15:31:03;30.60;44.50
51988;DHT22;38003;52.012;4.346;2022-08-03T15:33:32;30.60;44.50
51988;DHT22;38003;52.012;4.346;2022-08-03T15:36:01;30.70;44.60
51988;DHT22;38003;52.012;4.346;2022-08-03T15:38:29;30.50;44.60
51988;DHT22;38003;52.012;4.346;2022-08-03T15:40:58;30.40;44.20
51988;DHT22;38003;52.012;4.346;2022-08-03T15:43:26;30.60;45.10
51988;DHT22;38003;52.012;4.346;2022-08-03T15:45:54;30.50;44.40
51988;DHT22;38003;52.012;4.346;2022-08-03T15:48:44;30.60;44.70
51988;DHT22;38003;52.012;4.346;2022-08-03T15:51:12;30.70;45.10
51988;DHT22;38003;52.012;4.346;2022-08-03T15:53:40;30.70;44.80
51988;DHT22;38003;52.012;4.346;2022-08-03T15:56:10;30.80;45.10
51988;DHT22;38003;52.012;4.346;2022-08-03T15:58:44;30.80;45.00
51988;DHT22;38003;52.012;4.346;2022-08-03T16:01:32;30.80;45.00
51988;DHT22;38003;52.012;4.346;2022-08-03T16:04:00;30.70;44.80
51988;DHT22;38003;52.012;4.346;2022-08-03T16:06:30;30.70;44.70
51988;DHT22;38003;52.012;4.346;2022-08-03T16:09:01;30.70;45.00